Time;durP1;ratioP1;P1;durP2;ratioP2;P2;SDS_P1;SDS_P2;PMS_P1;PMS_P2;Temp;Humidity;BMP_temperature;BMP_pressure;BME280_temperature;BME280_humidity;BME280_pressure;Samples;Min_cycle;Max_cycle;Signal;HPM_P1;HPM_P2
2023/06/16 00:01:43;;;;;;;8.83;4.30;;;20.10;99.90;;;;;;7287456;19;20575;-79
2023/06/16 00:04:09;;;;;;;7.70;3.90;;;19.90;99.90;;;;;;7287484;19;20190;-79
2023/06/16 00:06:36;;;;;;;10.37;4.70;;;19.90;99.90;;;;;;7286878;19;20189;-80
2023/06/16 00:09:02;;;;;;;9.83;4.57;;;19.90;99.90;;;;;;7287144;19;20220;-79
2023/06/16 00:11:28;;;;;;;8.73;4.03;;;19.90;99.90;;;;;;7288043;19;20280;-78
2023/06/16 00:13:55;;;;;;;11.40;5.10;;;20.00;99.90;;;;;;7287101;19;20189;-78
2023/06/16 00:16:20;;;;;;;12.03;4.33;;;20.00;99.90;;;;;;7287207;19;20647;-78
2023/06/16 00:18:57;;;;;;;9.20;4.27;;;19.90;99.90;;;;;;7308393;19;20184;-78
2023/06/16 00:21:28;;;;;;;11.17;4.57;;;19.90;99.90;;;;;;7184905;19;2005133;-78
2023/06/16 00:23:54;;;;;;;8.93;4.20;;;19.90;99.90;;;;;;7286371;19;20260;-78
2023/06/16 00:26:20;;;;;;;8.37;3.80;;;19.90;99.90;;;;;;7286703;19;20218;-78
2023/06/16 00:28:46;;;;;;;9.20;4.00;;;19.90;99.90;;;;;;7308392;19;20184;-78
2023/06/16 00:31:12;;;;;;;8.47;4.10;;;19.90;99.90;;;;;;7286557;19;21015;-78
2023/06/16 00:33:38;;;;;;;9.87;4.57;;;19.80;99.90;;;;;;7285210;19;20198;-78
2023/06/16 00:36:04;;;;;;;7.87;4.20;;;19.70;99.90;;;;;;7284642;19;21195;-78
2023/06/16 00:38:30;;;;;;;8.77;3.57;;;19.60;99.90;;;;;;7286789;19;20300;-78
2023/06/16 00:40:56;;;;;;;7.67;4.20;;;19.50;99.90;;;;;;7284029;19;20199;-78
2023/06/16 00:43:21;;;;;;;7.57;4.20;;;19.40;99.90;;;;;;7286879;19;20205;-77
2023/06/16 00:45:50;;;;;;;8.73;4.47;;;19.40;99.90;;;;;;7296630;19;20265;-79
2023/06/16 00:48:16;;;;;;;9.47;4.20;;;19.30;99.90;;;;;;7307674;19;20321;-78
2023/06/16 00:50:43;;;;;;;9.40;4.87;;;19.20;99.90;;;;;;7286691;19;20181;-79
2023/06/16 00:53:09;;;;;;;10.13;4.17;;;19.20;99.90;;;;;;7283823;19;20193;-79
2023/06/16 00:55:35;;;;;;;10.17;4.10;;;19.10;99.90;;;;;;7286197;19;20652;-79
2023/06/16 00:58:03;;;;;;;12.53;4.20;;;19.00;99.90;;;;;;7285818;19;20264;-79
2023/06/16 01:00:30;;;;;;;10.13;4.30;;;18.90;99.90;;;;;;7283637;19;20852;-79
2023/06/16 01:02:56;;;;;;;8.90;4.47;;;18.90;99.90;;;;;;7284182;19;20206;-78
2023/06/16 01:05:24;;;;;;;8.13;3.87;;;18.90;99.90;;;;;;7286758;19;20272;-77
2023/06/16 01:08:11;;;;;;;9.30;4.40;;;19.00;99.90;;;;;;7288226;19;20276;-78
2023/06/16 01:10:58;;;;;;;8.80;3.93;;;19.00;99.90;;;;;;7285867;19;20194;-78
2023/06/16 01:13:47;;;;;;;8.50;4.00;;;18.80;99.90;;;;;;7183811;19;2004773;-78
2023/06/16 01:16:18;;;;;;;9.70;4.73;;;18.70;99.90;;;;;;7286901;19;20197;-78
2023/06/16 01:18:48;;;;;;;9.17;4.03;;;18.70;99.90;;;;;;7286718;19;20201;-79
2023/06/16 01:21:47;;;;;;;10.00;4.60;;;18.60;99.90;;;;;;7286988;19;20761;-78
2023/06/16 01:24:14;;;;;;;9.90;4.40;;;18.70;99.90;;;;;;7182850;19;2006081;-80
2023/06/16 01:26:45;;;;;;;11.00;4.37;;;18.70;99.90;;;;;;7283174;19;20194;-79
2023/06/16 01:29:13;;;;;;;8.97;4.50;;;18.70;99.90;;;;;;7283253;19;20533;-78
2023/06/16 01:31:43;;;;;;;11.23;4.67;;;18.60;99.90;;;;;;7282210;19;20255;-77
2023/06/16 01:34:10;;;;;;;9.43;4.43;;;18.60;99.90;;;;;;7284251;19;20265;-79
2023/06/16 01:36:39;;;;;;;9.70;4.37;;;18.50;99.90;;;;;;7282137;19;20200;-78
2023/06/16 01:39:06;;;;;;;8.57;4.13;;;18.50;99.90;;;;;;7283443;19;20691;-78
2023/06/16 01:41:33;;;;;;;12.30;4.60;;;18.50;99.90;;;;;;7282527;19;20224;-77
2023/06/16 01:44:01;;;;;;;9.43;4.20;;;18.50;99.90;;;;;;7281736;19;20205;-78
2023/06/16 01:46:29;;;;;;;8.47;4.57;;;18.40;99.90;;;;;;7284417;19;20762;-78
2023/06/16 01:48:55;;;;;;;8.80;4.50;;;18.30;99.90;;;;;;7283468;19;20336;-77
2023/06/16 01:51:22;;;;;;;11.90;4.77;;;18.10;99.90;;;;;;7284881;19;20203;-78
2023/06/16 01:53:48;;;;;;;9.80;4.60;;;18.00;99.90;;;;;;7304265;19;20272;-78
2023/06/16 01:56:15;;;;;;;9.93;4.63;;;18.00;99.90;;;;;;7285307;19;20657;-78
2023/06/16 01:58:43;;;;;;;9.53;4.80;;;18.00;99.90;;;;;;7285032;19;20182;-78
2023/06/16 02:01:25;;;;;;;9.27;4.60;;;18.00;99.90;;;;;;7281611;19;20197;-78
2023/06/16 02:03:56;;;;;;;13.47;4.67;;;18.10;99.90;;;;;;7261929;19;20205;-78
2023/06/16 02:06:26;;;;;;;9.17;4.47;;;18.00;99.90;;;;;;7283132;19;20185;-78
2023/06/16 02:08:55;;;;;;;11.13;4.90;;;17.90;99.90;;;;;;7284112;19;20184;-78
2023/06/16 02:11:22;;;;;;;17.77;5.10;;;17.80;99.90;;;;;;7281150;19;20193;-79
2023/06/16 02:13:48;;;;;;;11.47;4.40;;;17.70;99.90;;;;;;7306502;19;20681;-79
2023/06/16 02:16:14;;;;;;;10.07;4.70;;;17.80;99.90;;;;;;7285206;19;20190;-79
2023/06/16 02:18:40;;;;;;;8.70;4.50;;;17.80;99.90;;;;;;7282311;19;20182;-79
2023/06/16 02:21:06;;;;;;;10.27;4.90;;;17.80;99.90;;;;;;7284879;19;20836;-79
2023/06/16 02:23:31;;;;;;;9.77;4.60;;;17.80;99.90;;;;;;7283661;19;20181;-78
2023/06/16 02:25:57;;;;;;;8.77;4.83;;;17.80;99.90;;;;;;7282823;19;20204;-78
2023/06/16 02:28:23;;;;;;;9.13;4.70;;;17.80;99.90;;;;;;7282253;19;20181;-78
2023/06/16 02:30:49;;;;;;;8.37;4.20;;;17.80;99.90;;;;;;7304331;19;20268;-77
2023/06/16 02:33:17;;;;;;;10.33;5.03;;;17.80;99.90;;;;;;7292287;19;20598;-79
2023/06/16 02:35:43;;;;;;;8.50;5.00;;;17.70;99.90;;;;;;7281510;19;20193;-79
2023/06/16 02:38:09;;;;;;;9.33;4.73;;;17.70;99.90;;;;;;7282224;19;20400;-78
2023/06/16 02:40:35;;;;;;;11.87;4.47;;;17.70;99.90;;;;;;7282991;19;20384;-78
2023/06/16 02:43:01;;;;;;;9.57;4.57;;;17.70;99.90;;;;;;7283728;19;20240;-79
2023/06/16 02:45:26;;;;;;;10.27;4.53;;;17.60;99.90;;;;;;7282514;19;20185;-78
2023/06/16 02:47:52;;;;;;;9.63;4.63;;;17.50;99.90;;;;;;7282338;19;20183;-78
2023/06/16 02:50:18;;;;;;;12.87;4.97;;;17.40;99.90;;;;;;7304502;19;20185;-79
2023/06/16 02:52:44;;;;;;;8.60;4.93;;;17.30;99.90;;;;;;7281270;19;20196;-79
2023/06/16 02:55:15;;;;;;;9.23;4.43;;;17.20;99.90;;;;;;7284276;19;20189;-78
2023/06/16 02:57:46;;;;;;;9.47;4.30;;;17.10;99.90;;;;;;7283247;19;20185;-79
2023/06/16 03:00:13;;;;;;;8.00;4.67;;;16.80;99.90;;;;;;7280829;19;20196;-79
2023/06/16 03:02:58;;;;;;;10.60;4.67;;;16.70;99.90;;;;;;7178616;19;2004705;-78
2023/06/16 03:05:27;;;;;;;9.63;4.77;;;16.60;99.90;;;;;;7281252;19;20185;-78
2023/06/16 03:07:53;;;;;;;8.00;4.60;;;16.60;99.90;;;;;;7280465;19;20220;-78
2023/06/16 03:10:21;;;;;;;9.80;4.43;;;16.80;99.90;;;;;;7282349;19;20184;-78
2023/06/16 03:13:00;;;;;;;11.50;5.00;;;16.80;99.90;;;;;;7282286;19;20271;-79
2023/06/16 03:15:27;;;;;;;9.87;4.47;;;16.90;99.90;;;;;;7282666;19;20192;-78
2023/06/16 03:17:54;;;;;;;10.03;4.80;;;16.90;99.90;;;;;;7281452;19;20260;-79
2023/06/16 03:20:21;;;;;;;8.73;4.70;;;17.00;99.90;;;;;;7295863;19;20188;-76
2023/06/16 03:22:53;;;;;;;11.03;5.07;;;17.00;99.90;;;;;;7281344;19;20193;-77
2023/06/16 03:25:21;;;;;;;8.87;4.90;;;17.10;99.90;;;;;;7297154;19;20270;-77
2023/06/16 03:27:47;;;;;;;9.87;4.93;;;17.20;99.90;;;;;;7302766;19;20222;-78
2023/06/16 03:30:19;;;;;;;10.47;4.63;;;17.20;99.90;;;;;;7278464;19;20176;-76
2023/06/16 03:32:57;;;;;;;12.60;4.87;;;17.20;99.90;;;;;;7281420;19;20180;-78
2023/06/16 03:35:23;;;;;;;10.07;4.60;;;17.30;99.90;;;;;;7279784;19;20212;-78
2023/06/16 03:37:51;;;;;;;13.47;4.93;;;17.20;99.90;;;;;;7282202;19;20536;-78
2023/06/16 03:40:18;;;;;;;10.03;5.03;;;17.30;99.90;;;;;;7303776;19;20184;-79
2023/06/16 03:42:44;;;;;;;15.63;4.80;;;17.30;99.90;;;;;;7279876;19;20208;-78
2023/06/16 03:45:11;;;;;;;12.57;4.90;;;17.30;99.90;;;;;;7280566;19;20188;-77
2023/06/16 03:47:37;;;;;;;13.40;4.63;;;17.20;99.90;;;;;;7280717;19;20196;-77
2023/06/16 03:50:04;;;;;;;13.57;5.03;;;17.20;99.90;;;;;;7280217;19;20244;-78
2023/06/16 03:52:32;;;;;;;11.07;5.07;;;17.20;99.90;;;;;;7281136;19;20654;-77
2023/06/16 03:54:57;;;;;;;7.87;4.70;;;17.10;99.90;;;;;;7279206;19;20200;-79
2023/06/16 03:57:23;;;;;;;9.70;5.00;;;17.10;99.90;;;;;;7279881;19;20187;-77
2023/06/16 03:59:50;;;;;;;10.40;4.63;;;16.80;99.90;;;;;;7296280;19;20185;-76
2023/06/16 04:02:16;;;;;;;9.80;4.77;;;16.60;99.90;;;;;;7294456;19;20203;-77
2023/06/16 04:04:46;;;;;;;12.27;5.27;;;16.60;99.90;;;;;;7280892;19;20194;-77
2023/06/16 04:07:13;;;;;;;10.97;4.97;;;16.80;99.90;;;;;;7280395;19;20193;-77
2023/06/16 04:09:40;;;;;;;12.20;5.33;;;17.00;99.90;;;;;;7279720;19;20206;-77
2023/06/16 04:12:06;;;;;;;12.43;5.13;;;17.10;99.90;;;;;;7280110;19;20564;-77
2023/06/16 04:14:34;;;;;;;11.03;5.10;;;17.20;99.90;;;;;;7279260;19;21768;-79
2023/06/16 04:17:00;;;;;;;12.63;5.00;;;17.00;99.90;;;;;;7279350;19;20216;-77
2023/06/16 04:19:26;;;;;;;9.43;4.90;;;17.10;99.90;;;;;;7281541;19;20189;-77
2023/06/16 04:21:53;;;;;;;12.13;4.63;;;17.20;99.90;;;;;;7280186;19;20188;-77
2023/06/16 04:24:20;;;;;;;12.77;4.70;;;17.30;99.90;;;;;;7292297;19;20209;-77
2023/06/16 04:26:48;;;;;;;10.97;5.23;;;17.50;99.90;;;;;;7302937;19;20193;-78
2023/06/16 04:29:15;;;;;;;10.43;5.23;;;17.60;99.90;;;;;;7279586;19;20551;-78
2023/06/16 04:31:42;;;;;;;9.70;5.10;;;17.70;99.90;;;;;;7279048;19;20222;-78
2023/06/16 04:34:10;;;;;;;9.23;4.83;;;17.90;99.90;;;;;;7279550;19;21220;-78
2023/06/16 04:36:44;;;;;;;10.20;4.87;;;18.10;99.90;;;;;;7279154;19;20685;-78
2023/06/16 04:39:37;;;;;;;11.23;5.20;;;18.10;99.90;;;;;;7182996;19;2006006;-77
2023/06/16 04:42:07;;;;;;;11.13;5.13;;;18.30;99.90;;;;;;7285700;19;20197;-79
2023/06/16 04:44:34;;;;;;;9.60;5.10;;;18.60;99.90;;;;;;7286740;19;20189;-79
2023/06/16 04:47:00;;;;;;;12.03;4.87;;;19.10;99.90;;;;;;7285037;19;20205;-78
2023/06/16 04:49:26;;;;;;;12.33;5.13;;;19.40;99.90;;;;;;7282005;19;20188;-78
2023/06/16 04:51:52;;;;;;;12.70;5.43;;;19.50;99.90;;;;;;7284797;19;20219;-78
2023/06/16 04:54:19;;;;;;;12.00;5.10;;;19.40;99.90;;;;;;7306365;19;20186;-79
2023/06/16 04:56:45;;;;;;;12.57;4.87;;;19.60;99.90;;;;;;7284808;19;20200;-79
2023/06/16 04:59:12;;;;;;;10.73;4.67;;;20.10;99.90;;;;;;7284715;19;20720;-79
2023/06/16 05:01:39;;;;;;;13.03;4.93;;;21.20;99.90;;;;;;7284266;19;20216;-79
2023/06/16 05:04:05;;;;;;;15.90;5.17;;;21.80;99.90;;;;;;7284947;19;20221;-79
2023/06/16 05:06:34;;;;;;;14.37;5.20;;;22.00;99.90;;;;;;7279366;19;20189;-77
2023/06/16 05:08:59;;;;;;;15.50;5.23;;;22.60;99.90;;;;;;7284436;19;20196;-76
2023/06/16 05:11:25;;;;;;;13.47;5.30;;;23.00;99.90;;;;;;7284329;19;20210;-76
2023/06/16 05:13:51;;;;;;;16.47;6.03;;;23.10;99.90;;;;;;7292396;19;20185;-76
2023/06/16 05:16:18;;;;;;;12.53;5.90;;;22.70;99.90;;;;;;7305953;19;20569;-77
2023/06/16 05:18:44;;;;;;;11.53;5.47;;;22.40;99.90;;;;;;7284756;19;20189;-77
2023/06/16 05:21:09;;;;;;;11.73;5.57;;;22.00;99.90;;;;;;7284327;19;25410;-79
2023/06/16 05:23:37;;;;;;;10.73;5.40;;;21.90;99.90;;;;;;7282766;19;20185;-77
2023/06/16 05:26:03;;;;;;;13.77;5.97;;;22.20;99.90;;;;;;7284496;19;20212;-76
2023/06/16 05:28:29;;;;;;;11.50;5.27;;;23.10;99.90;;;;;;7282492;19;20256;-76
2023/06/16 05:30:55;;;;;;;11.40;5.60;;;24.00;99.90;;;;;;7281589;19;20599;-75
2023/06/16 05:33:21;;;;;;;9.70;5.03;;;25.10;99.90;;;;;;7294123;19;20659;-75
2023/06/16 05:35:46;;;;;;;10.18;4.70;;;26.00;99.90;;;;;;7298849;19;20185;-77
2023/06/16 05:38:12;;;;;;;16.42;5.82;;;26.60;99.90;;;;;;7283417;19;20196;-77
2023/06/16 05:40:38;;;;;;;12.90;5.57;;;26.90;99.90;;;;;;7283965;19;20192;-78
2023/06/16 05:43:04;;;;;;;17.60;7.47;;;27.50;99.90;;;;;;7283985;19;20207;-77
2023/06/16 05:45:32;;;;;;;18.67;7.00;;;28.50;99.90;;;;;;7280906;19;20189;-78
2023/06/16 05:47:57;;;;;;;23.85;7.80;;;28.20;99.90;;;;;;7281503;19;20212;-78
2023/06/16 05:50:23;;;;;;;22.05;6.88;;;28.40;99.90;;;;;;7282839;19;20231;-80
2023/06/16 05:52:49;;;;;;;22.60;7.18;;;29.00;99.90;;;;;;7306143;19;20647;-80
2023/06/16 05:55:15;;;;;;;34.38;8.40;;;29.70;99.40;;;;;;7285840;19;22200;-82
2023/06/16 05:57:47;;;;;;;36.17;7.50;;;30.60;96.10;;;;;;7284775;19;20188;-81
2023/06/16 06:00:14;;;;;;;37.92;7.80;;;31.10;95.00;;;;;;7284514;19;20946;-79
2023/06/16 06:02:40;;;;;;;29.05;7.35;;;31.20;92.80;;;;;;7286217;19;20189;-79
2023/06/16 06:05:10;;;;;;;33.55;7.90;;;30.30;92.90;;;;;;7283431;19;20189;-79
2023/06/16 06:07:36;;;;;;;29.98;7.50;;;30.10;93.20;;;;;;7284609;19;20193;-78
2023/06/16 06:10:02;;;;;;;28.50;7.93;;;30.90;92.60;;;;;;7283798;19;20521;-79
2023/06/16 06:12:28;;;;;;;25.83;7.95;;;31.70;90.70;;;;;;7285217;19;20204;-79
2023/06/16 06:14:53;;;;;;;30.58;7.97;;;32.20;89.00;;;;;;7284524;19;20196;-79
2023/06/16 06:17:19;;;;;;;20.05;6.97;;;32.30;86.90;;;;;;7306102;19;20200;-79
2023/06/16 06:19:47;;;;;;;17.80;7.13;;;32.80;85.30;;;;;;7283624;19;20189;-79
2023/06/16 06:22:13;;;;;;;24.35;7.55;;;33.00;82.90;;;;;;7285501;19;20197;-79
2023/06/16 06:24:40;;;;;;;28.80;6.93;;;32.90;82.90;;;;;;7283803;19;20216;-79
2023/06/16 06:27:10;;;;;;;25.65;7.47;;;33.40;81.30;;;;;;7285000;19;20565;-80
2023/06/16 06:29:36;;;;;;;17.80;8.10;;;33.50;80.20;;;;;;7284991;19;20347;-79
2023/06/16 06:32:06;;;;;;;21.48;8.13;;;33.70;78.20;;;;;;7284135;19;20189;-79
2023/06/16 06:34:32;;;;;;;22.17;8.27;;;33.30;77.50;;;;;;7283650;19;20202;-79
2023/06/16 06:36:58;;;;;;;20.08;7.43;;;33.10;78.40;;;;;;7284046;19;20189;-80
2023/06/16 06:39:23;;;;;;;24.45;8.48;;;32.90;78.50;;;;;;7283362;19;20707;-80
2023/06/16 06:41:49;;;;;;;21.20;7.97;;;32.90;78.60;;;;;;7306608;19;20207;-81
2023/06/16 06:44:21;;;;;;;20.27;7.43;;;33.30;79.70;;;;;;7276756;19;20188;-80
2023/06/16 06:46:48;;;;;;;20.58;8.52;;;33.40;78.40;;;;;;7304325;19;20200;-80
2023/06/16 06:49:15;;;;;;;18.70;9.15;;;33.70;76.00;;;;;;7282968;19;20191;-80
2023/06/16 06:51:41;;;;;;;23.95;8.77;;;32.90;74.80;;;;;;7283437;19;20193;-80
2023/06/16 06:54:07;;;;;;;23.88;8.27;;;32.70;75.80;;;;;;7282878;19;20212;-80
2023/06/16 06:56:33;;;;;;;22.08;8.65;;;32.90;76.10;;;;;;7284181;19;20185;-80
2023/06/16 06:58:59;;;;;;;20.48;8.18;;;32.80;76.00;;;;;;7281698;19;20183;-80
2023/06/16 07:01:24;;;;;;;15.88;7.13;;;33.00;75.50;;;;;;7279096;19;20200;-80
2023/06/16 07:03:50;;;;;;;18.77;8.55;;;32.60;75.90;;;;;;7304167;19;20208;-80
2023/06/16 07:06:16;;;;;;;19.20;8.07;;;32.20;78.80;;;;;;7281706;19;20185;-81
2023/06/16 07:08:41;;;;;;;20.52;8.00;;;32.20;77.80;;;;;;7282378;19;20189;-80
2023/06/16 07:11:07;;;;;;;17.70;8.50;;;31.80;79.30;;;;;;7281991;19;20188;-82
2023/06/16 07:13:33;;;;;;;19.80;8.48;;;31.70;78.90;;;;;;7281014;19;20185;-82
2023/06/16 07:15:59;;;;;;;22.35;7.88;;;31.50;79.30;;;;;;7280034;19;20185;-83
2023/06/16 07:18:27;;;;;;;23.02;8.82;;;31.60;80.00;;;;;;7281200;19;20200;-81
2023/06/16 07:20:53;;;;;;;20.23;7.90;;;32.00;79.50;;;;;;7281133;19;20177;-79
2023/06/16 07:23:19;;;;;;;20.30;8.65;;;32.40;78.30;;;;;;7303676;19;20225;-80
2023/06/16 07:25:44;;;;;;;19.75;7.50;;;33.40;78.80;;;;;;7282655;19;20181;-81
2023/06/16 07:28:12;;;;;;;20.55;8.48;;;34.90;73.80;;;;;;7282814;19;20194;-80
2023/06/16 07:30:37;;;;;;;17.30;7.45;;;36.00;72.20;;;;;;7282512;19;20199;-80
2023/06/16 07:33:03;;;;;;;15.85;7.80;;;37.30;68.40;;;;;;7282510;19;20513;-81
2023/06/16 07:35:29;;;;;;;15.43;7.68;;;38.20;64.80;;;;;;7283289;19;20214;-81
2023/06/16 07:37:55;;;;;;;19.63;7.40;;;38.70;64.30;;;;;;7283104;19;20181;-81
2023/06/16 07:40:21;;;;;;;19.90;7.68;;;39.60;61.50;;;;;;7304513;19;20181;-81
2023/06/16 07:42:47;;;;;;;15.85;7.15;;;39.90;59.50;;;;;;7283135;19;20183;-82
2023/06/16 07:45:13;;;;;;;16.02;7.63;;;40.00;57.90;;;;;;7284218;19;20181;-82
2023/06/16 07:47:42;;;;;;;19.83;7.50;;;39.50;56.70;;;;;;7283369;19;20253;-82
2023/06/16 07:50:08;;;;;;;15.48;7.93;;;40.10;57.40;;;;;;7282712;19;20188;-82
2023/06/16 07:52:35;;;;;;;23.17;8.40;;;40.30;56.10;;;;;;7283110;19;20210;-82
2023/06/16 07:55:00;;;;;;;22.60;7.90;;;40.20;55.00;;;;;;7282112;19;20625;-82
2023/06/16 07:57:26;;;;;;;17.85;7.70;;;40.50;55.00;;;;;;7281009;19;20181;-82
2023/06/16 07:59:53;;;;;;;20.23;7.85;;;41.10;54.10;;;;;;7294660;19;20185;-82
2023/06/16 08:02:19;;;;;;;24.52;8.50;;;41.20;53.10;;;;;;7303165;19;20211;-82
2023/06/16 08:04:45;;;;;;;22.15;8.00;;;41.60;52.30;;;;;;7282981;19;20583;-83
2023/06/16 08:07:11;;;;;;;27.20;8.63;;;41.60;51.80;;;;;;7281235;19;20188;-82
2023/06/16 08:09:37;;;;;;;17.63;6.97;;;42.20;52.30;;;;;;7281928;19;20189;-83
2023/06/16 08:12:04;;;;;;;19.52;8.18;;;41.30;50.70;;;;;;7284606;19;20537;-82
2023/06/16 08:14:30;;;;;;;24.13;7.97;;;40.90;51.00;;;;;;7289991;19;20349;-82
2023/06/16 08:16:56;;;;;;;17.58;7.68;;;41.70;52.10;;;;;;7289744;19;20193;-82
2023/06/16 08:19:22;;;;;;;16.23;6.38;;;40.00;51.30;;;;;;7299925;19;20317;-82
2023/06/16 08:21:47;;;;;;;18.98;7.70;;;40.20;51.60;;;;;;7305813;19;20181;-82
2023/06/16 08:24:13;;;;;;;14.35;7.63;;;39.70;52.90;;;;;;7289997;19;20244;-82
2023/06/16 08:26:39;;;;;;;19.20;7.38;;;40.80;50.70;;;;;;7287739;19;20244;-83
2023/06/16 08:29:05;;;;;;;14.20;6.65;;;41.30;50.40;;;;;;7288485;19;20206;-83
2023/06/16 08:31:30;;;;;;;18.42;6.30;;;41.60;50.10;;;;;;7289581;19;20197;-82
2023/06/16 08:33:56;;;;;;;13.63;6.00;;;42.60;50.10;;;;;;7286849;19;20192;-82
2023/06/16 08:36:24;;;;;;;20.23;6.38;;;42.00;48.60;;;;;;7299165;19;20197;-82
2023/06/16 08:38:52;;;;;;;23.65;6.90;;;42.60;49.00;;;;;;7311401;19;20210;-82
2023/06/16 08:41:18;;;;;;;20.08;6.70;;;42.30;47.60;;;;;;7289322;19;20222;-82
2023/06/16 08:43:48;;;;;;;12.07;5.75;;;42.70;47.00;;;;;;7288479;19;20866;-82
2023/06/16 08:46:15;;;;;;;13.93;5.07;;;43.10;45.90;;;;;;7287826;19;20212;-83
2023/06/16 08:48:41;;;;;;;13.43;5.28;;;42.50;47.70;;;;;;7288250;19;20197;-82
2023/06/16 08:51:14;;;;;;;10.82;4.72;;;42.60;45.70;;;;;;7288431;19;20260;-82
2023/06/16 08:53:41;;;;;;;11.90;5.25;;;41.90;45.80;;;;;;7286784;19;20212;-84
2023/06/16 08:56:09;;;;;;;17.08;5.40;;;41.30;46.50;;;;;;7287481;19;20192;-83
2023/06/16 08:58:36;;;;;;;14.00;5.68;;;42.30;46.30;;;;;;7288530;19;20201;-83
2023/06/16 09:01:03;;;;;;;14.13;6.00;;;41.20;46.10;;;;;;7286990;19;20201;-82
2023/06/16 09:03:32;;;;;;;14.95;5.75;;;42.30;45.70;;;;;;7287152;19;20215;-81
2023/06/16 09:06:01;;;;;;;13.77;5.50;;;42.90;44.20;;;;;;7286594;19;20192;-82
2023/06/16 09:08:28;;;;;;;14.50;5.07;;;43.60;44.40;;;;;;7284446;19;20223;-82
2023/06/16 09:10:54;;;;;;;13.75;5.57;;;43.60;44.80;;;;;;7287707;19;20584;-83
2023/06/16 09:13:21;;;;;;;14.30;4.88;;;41.50;44.20;;;;;;7308492;19;20189;-84
2023/06/16 09:15:48;;;;;;;10.48;4.88;;;41.60;45.80;;;;;;7286999;19;20192;-84
2023/06/16 09:18:17;;;;;;;15.85;4.95;;;42.20;44.30;;;;;;7287404;19;20195;-84
2023/06/16 09:20:44;;;;;;;10.35;4.90;;;41.40;44.80;;;;;;7287398;19;20235;-83
2023/06/16 09:23:10;;;;;;;12.23;5.15;;;41.90;44.00;;;;;;7283980;19;20185;-83
2023/06/16 09:25:38;;;;;;;13.05;4.22;;;42.80;43.10;;;;;;7287808;19;20244;-84
2023/06/16 09:28:09;;;;;;;11.20;4.93;;;43.50;42.20;;;;;;7286254;19;20673;-84
2023/06/16 09:30:36;;;;;;;11.45;4.97;;;43.30;43.70;;;;;;7286012;19;20278;-84
2023/06/16 09:33:02;;;;;;;12.02;4.60;;;42.90;43.40;;;;;;7293041;19;20191;-85
2023/06/16 09:35:30;;;;;;;12.75;4.57;;;43.60;43.10;;;;;;7305934;19;20213;-85
2023/06/16 09:37:57;;;;;;;13.25;5.13;;;43.00;43.00;;;;;;7300589;19;20196;-85
2023/06/16 09:40:28;;;;;;;14.10;5.10;;;42.20;41.90;;;;;;7304957;19;20191;-84
2023/06/16 09:42:58;;;;;;;11.60;4.80;;;41.90;42.30;;;;;;7286952;19;20189;-85
2023/06/16 09:45:28;;;;;;;11.20;4.55;;;42.60;44.60;;;;;;7294442;19;20180;-84
2023/06/16 09:47:54;;;;;;;13.85;4.80;;;43.30;43.00;;;;;;7290541;19;20192;-84
2023/06/16 09:50:25;;;;;;;12.43;4.97;;;44.40;42.30;;;;;;7308006;19;20185;-84
2023/06/16 09:52:53;;;;;;;10.93;5.03;;;44.30;41.20;;;;;;7286124;19;20173;-84
2023/06/16 09:55:19;;;;;;;14.90;4.75;;;44.20;40.40;;;;;;7285969;19;20252;-85
2023/06/16 09:57:46;;;;;;;12.10;4.50;;;43.80;41.00;;;;;;7285729;19;20224;-85
2023/06/16 10:00:16;;;;;;;9.23;4.50;;;44.50;41.20;;;;;;7285506;19;20205;-85
2023/06/16 10:02:46;;;;;;;11.57;4.93;;;44.80;40.50;;;;;;7286843;19;20560;-84
2023/06/16 10:05:17;;;;;;;10.30;4.82;;;44.20;41.00;;;;;;7286413;19;20239;-84
2023/06/16 10:07:46;;;;;;;15.48;4.90;;;44.00;40.70;;;;;;7285079;19;20181;-84
2023/06/16 10:10:13;;;;;;;12.65;4.88;;;44.40;40.30;;;;;;7286775;19;20882;-84
2023/06/16 10:12:48;;;;;;;8.63;3.72;;;45.00;39.30;;;;;;7285911;19;20539;-83
2023/06/16 10:15:24;;;;;;;8.70;4.32;;;44.00;38.50;;;;;;7284564;19;20177;-83
2023/06/16 10:17:51;;;;;;;9.80;4.10;;;43.30;39.10;;;;;;7285442;19;20660;-85
2023/06/16 10:20:19;;;;;;;10.15;4.18;;;43.40;38.80;;;;;;7284832;19;20195;-85
2023/06/16 10:22:46;;;;;;;8.48;3.50;;;44.00;38.70;;;;;;7284928;19;20296;-85
2023/06/16 10:25:12;;;;;;;9.45;4.00;;;44.80;38.50;;;;;;7283745;19;20195;-84
2023/06/16 10:27:40;;;;;;;10.80;3.75;;;44.00;36.60;;;;;;7285336;19;20185;-83
2023/06/16 10:30:09;;;;;;;6.30;3.55;;;43.90;37.60;;;;;;7286577;19;20189;-83
2023/06/16 10:32:37;;;;;;;8.05;3.85;;;43.30;37.50;;;;;;7283038;19;20539;-83
2023/06/16 10:35:07;;;;;;;11.93;4.15;;;42.80;38.30;;;;;;7282442;19;20187;-83
2023/06/16 10:37:33;;;;;;;9.50;4.60;;;42.70;38.30;;;;;;7281989;19;20193;-83
2023/06/16 10:40:08;;;;;;;10.48;4.68;;;42.90;38.60;;;;;;7283310;19;20655;-82
2023/06/16 10:42:35;;;;;;;11.00;4.35;;;41.60;39.40;;;;;;7285667;19;20647;-83
2023/06/16 10:45:26;;;;;;;14.20;4.40;;;42.10;40.40;;;;;;7284324;19;20197;-83
2023/06/16 10:47:56;;;;;;;10.50;5.10;;;42.90;39.70;;;;;;7285431;19;20212;-83
2023/06/16 10:50:49;;;;;;;10.60;4.75;;;42.30;38.90;;;;;;7286951;19;20753;-83
2023/06/16 10:53:16;;;;;;;8.30;4.55;;;40.70;39.60;;;;;;7182976;19;2004803;-83
2023/06/16 10:55:44;;;;;;;12.70;4.82;;;40.80;39.60;;;;;;7284679;19;20305;-83
2023/06/16 10:58:16;;;;;;;12.55;4.80;;;40.10;40.20;;;;;;7285492;19;20192;-82
2023/06/16 11:01:02;;;;;;;11.15;4.85;;;38.50;42.10;;;;;;7284663;19;20197;-83
2023/06/16 11:03:42;;;;;;;12.23;5.93;;;36.90;42.10;;;;;;7182163;19;2005035;-82
2023/06/16 11:06:12;;;;;;;11.25;5.28;;;35.50;44.40;;;;;;7285260;19;20192;-82
2023/06/16 11:08:52;;;;;;;13.00;5.32;;;34.90;45.50;;;;;;7283385;19;20192;-83
2023/06/16 11:11:18;;;;;;;10.57;5.05;;;34.40;46.10;;;;;;7284944;19;20188;-82
2023/06/16 11:13:45;;;;;;;12.30;5.75;;;34.00;45.60;;;;;;7284324;19;20210;-82
2023/06/16 11:16:10;;;;;;;11.43;4.85;;;33.20;46.10;;;;;;7283479;19;20252;-82
2023/06/16 11:18:36;;;;;;;9.88;4.65;;;33.00;47.70;;;;;;7284432;19;20213;-82
2023/06/16 11:21:06;;;;;;;8.43;4.75;;;33.10;47.40;;;;;;7284193;19;20851;-82
2023/06/16 11:23:33;;;;;;;8.75;4.85;;;33.90;47.70;;;;;;7284936;19;20196;-83
2023/06/16 11:26:03;;;;;;;14.15;4.72;;;34.90;45.90;;;;;;7284588;19;20220;-83
2023/06/16 11:28:29;;;;;;;8.60;4.15;;;37.70;44.50;;;;;;7284067;19;20200;-82
2023/06/16 11:30:55;;;;;;;11.52;4.47;;;39.50;43.30;;;;;;7283818;19;20192;-82
2023/06/16 11:33:22;;;;;;;9.77;4.53;;;40.30;41.80;;;;;;7305877;19;20196;-83
2023/06/16 11:35:48;;;;;;;10.18;4.57;;;39.50;41.00;;;;;;7284771;19;20281;-83
2023/06/16 11:38:25;;;;;;;9.30;4.22;;;39.10;42.20;;;;;;7283416;19;20259;-84
2023/06/16 11:40:53;;;;;;;10.07;4.57;;;39.30;42.00;;;;;;7283658;19;20229;-83
2023/06/16 11:43:22;;;;;;;9.85;4.20;;;39.50;43.70;;;;;;7284267;19;20558;-82
2023/06/16 11:45:51;;;;;;;9.40;4.35;;;40.00;42.60;;;;;;7283356;19;20197;-83
2023/06/16 11:48:17;;;;;;;11.82;4.00;;;40.50;42.10;;;;;;7288341;19;20219;-83
2023/06/16 11:50:43;;;;;;;10.35;3.90;;;41.20;41.10;;;;;;7289639;19;20241;-82
2023/06/16 11:53:13;;;;;;;5.90;3.30;;;42.10;42.20;;;;;;7289450;19;20199;-82
2023/06/16 11:55:39;;;;;;;6.78;3.83;;;41.80;40.10;;;;;;7289207;19;20200;-83
2023/06/16 11:58:04;;;;;;;10.80;3.30;;;42.40;39.80;;;;;;7288121;19;20193;-82
2023/06/16 12:00:31;;;;;;;8.52;3.50;;;43.40;39.70;;;;;;7289209;19;20216;-82
2023/06/16 12:02:57;;;;;;;13.15;4.10;;;42.30;39.20;;;;;;7289891;19;20192;-82
2023/06/16 12:05:28;;;;;;;8.25;4.03;;;40.80;40.00;;;;;;7310979;19;20196;-82
2023/06/16 12:07:54;;;;;;;12.07;4.18;;;40.20;41.90;;;;;;7287082;19;20193;-82
2023/06/16 12:10:22;;;;;;;11.45;3.90;;;38.70;41.60;;;;;;7305554;19;20683;-82
2023/06/16 12:12:47;;;;;;;9.93;4.28;;;37.40;42.00;;;;;;7289048;19;20193;-82
2023/06/16 12:15:17;;;;;;;8.65;3.83;;;36.10;42.40;;;;;;7288084;19;20281;-82
2023/06/16 12:17:43;;;;;;;12.00;4.43;;;35.40;44.00;;;;;;7288759;19;20207;-82
2023/06/16 12:20:12;;;;;;;8.52;4.30;;;34.80;45.60;;;;;;7287890;19;20189;-82
2023/06/16 12:22:38;;;;;;;7.75;3.85;;;34.60;44.80;;;;;;7288531;19;20193;-82
2023/06/16 12:25:13;;;;;;;9.07;4.13;;;34.70;45.40;;;;;;7287900;19;20197;-82
2023/06/16 12:27:45;;;;;;;6.57;3.78;;;34.80;45.30;;;;;;7288583;19;20205;-82
2023/06/16 12:30:12;;;;;;;7.15;3.95;;;34.70;44.60;;;;;;7288425;19;20192;-82
2023/06/16 12:32:39;;;;;;;11.10;4.10;;;34.60;45.90;;;;;;7287411;19;20544;-82
2023/06/16 12:35:05;;;;;;;9.15;3.78;;;34.40;46.70;;;;;;7286334;19;20617;-82
2023/06/16 12:37:31;;;;;;;10.15;4.30;;;34.40;46.40;;;;;;7287336;19;20201;-84
2023/06/16 12:39:58;;;;;;;7.82;3.95;;;34.40;46.10;;;;;;7288403;19;20196;-83
2023/06/16 12:42:29;;;;;;;11.68;4.15;;;34.10;44.90;;;;;;7301249;19;20200;-81
2023/06/16 12:44:59;;;;;;;8.57;4.03;;;33.50;46.10;;;;;;7290509;19;20207;-83